Flight Track Log - Related Links

Times and Time Zones

All times are in EDT time to prevent confusion due to time zone crossing. See the ASQ5976 flight status page for this flight to view local times or setup timezone preferences in your user account.

Time Position Orientation Groundspeed Altitude Reporting Facility
EDT Latitude Longitude Course Direction KTS MPH feet Rate Location/Type
Fri 10:22:25 AM 39.8167 -104.6500 218° Southwest 181 208 6,500  Level Denver TRACON
Fri 10:23:25 AM 39.7667 -104.6667 194° South 236 272 7,700 1,421 Climbing Denver TRACON
Fri 10:24:19 AM 39.7000 -104.7000 201° Southwest 277 319 9,200 1,850 Climbing Denver TRACON
Fri 10:25:00 AM 39.6289 -104.4022 201° Southwest  Level FlightAware Approximate
Fri 10:25:25 AM 39.6167 -104.7000 180° South 300 345 11,400  Level Denver TRACON
Fri 10:26:00 AM 39.5393 -104.4652 212° Southwest  Level FlightAware Approximate
Fri 10:26:19 AM 39.5500 -104.7500 210° Southwest 314 361 12,700  Level Denver TRACON
Fri 10:27:00 AM 39.4517 -104.5316 218° Southwest  Level FlightAware Approximate
Fri 10:27:27 AM 39.4578 -104.8181 210° Southwest 334 384 14,500  Level Denver Center
Fri 10:28:29 AM 39.3806 -104.8800 212° Southwest 328 377 17,000 2,293 Climbing Denver Center
Fri 10:29:30 AM 39.3003 -104.9408 210° Southwest 310 357 19,200 1,902 Climbing Denver Center
Fri 10:30:32 AM 39.2250 -104.9997 211° Southwest 316 364 20,900 1,597 Climbing Denver Center
Fri 10:31:34 AM 39.1450 -105.0600 210° Southwest 333 383 22,500 1,597 Climbing Denver Center
Fri 10:32:36 AM 39.0522 -105.1208 207° Southwest 335 386 24,200 1,597 Climbing Denver Center
Fri 10:33:38 AM 38.9719 -105.1714 206° Southwest 335 386 25,800 864 Climbing Denver Center
Fri 10:34:41 AM 38.8892 -105.2242 206° Southwest 343 395 26,000 97 Climbing Denver Center
Fri 10:35:42 AM 38.7969 -105.2817 206° Southwest 368 423 26,000  Level Denver Center
Fri 10:36:45 AM 38.6806 -105.3561 207° Southwest 403 464 26,000  Level Denver Center
Fri 10:37:47 AM 38.5608 -105.4333 207° Southwest 421 484 26,000  Level Denver Center
Fri 10:38:49 AM 38.4769 -105.5356 224° Southwest 435 501 26,000  Level Denver Center
Fri 10:39:51 AM 38.3958 -105.6725 233° Southwest 436 502 26,000  Level Denver Center
Fri 10:40:52 AM 38.3397 -105.7697 234° Southwest 432 497 26,000  Level Denver Center
Fri 10:41:55 AM 38.2464 -105.9294 233° Southwest 438 504 26,000  Level Denver Center
Fri 10:42:57 AM 38.1778 -106.0458 233° Southwest 433 498 26,000  Level Denver Center
Fri 10:43:59 AM 38.0986 -106.1814 233° Southwest 433 498 26,000  Level Denver Center
Fri 10:45:01 AM 38.0278 -106.3025 233° Southwest 427 491 26,000  Level Denver Center
Fri 10:46:03 AM 37.9583 -106.4189 233° Southwest 431 496 26,000  Level Denver Center
Fri 10:47:05 AM 37.8792 -106.5519 233° Southwest 425 489 26,000  Level Denver Center
Fri 10:48:07 AM 37.8100 -106.6683 233° Southwest 430 495 26,000  Level Denver Center
Fri 10:49:09 AM 37.7297 -106.8028 233° Southwest 429 494 26,000 -581 Level Denver Center
Fri 10:50:11 AM 37.6608 -106.9169 233° Southwest 429 494 24,800 -2,274 Descending Denver Center
Fri 10:51:13 AM 37.5861 -107.0419 233° Southwest 405 466 21,300 -3,242 Descending Denver Center
Fri 10:52:15 AM 37.5258 -107.1453 234° Southwest 392 451 18,100 -2,613 Descending Denver Center
Fri 10:53:17 AM 37.4558 -107.2589 232° Southwest 377 434 15,900 -1,016 Descending Denver Center
Fri 10:54:19 AM 37.4017 -107.3514 234° Southwest 357 411 16,000  Climbing Denver Center
Fri 10:55:21 AM 37.3386 -107.4556 233° Southwest 343 395 15,900 -726 Descending Denver Center
Fri 10:56:23 AM 37.2889 -107.5358 232° Southwest 320 368 14,500 -1,355 Descending Denver Center

Login

Don't have an account? Register now (free) for customized features, flight alerts, and more!